Pagrindinis puslapis
METAR-TAF:

METAR-TAF

Oro uostai :

Chartumas, Sudanas

platuma: 15-36N, ilguma: 032-33E, Aukštis: 382 m

Dabartinis oras

Ataskaita buvo paskelbta 24 minutes, ne 12:00 UTC
Vėjas 7 kt iš Šiaurės
Temperatūra 43°C
Drėgmė 9%
Slėgis 1008 hPa
Matomumas 10 km arba daugiau
nėra debesų žemiau 1500 m ir nėra kamuolinių lietaus debesų

METAR: HSSS 041200Z 36007KT CAVOK 43/04 Q1008 NOSIG

Laikas: 14:24 (12:24 UTC)

Prognozė

Ataskaita buvo paskelbta 1 valandą ir 24 minutes, ne 11:00 UTC
Prognozė galioja nuo 04 metu 12 UTC su 05 metu 18 UTC
Vėjas 12 kt iš Pietų/Pietvakarių su gūsio iki 22 kt
Matomumas 10 km arba daugiau
nėra debesų žemiau 1500 m ir nėra kamuolinių lietaus debesų

TAF: HSSS 041100Z 0412/0518 21012G22KT CAVOK

Orai ataskaitas ir orų prognozės (METAR, TAF).

turimą stotys yra geltonos ir raudonos taškus žemėlapyje.

Perkelti pele per norėdami pamatyti stoties vardą.

Tada spustelėkite, norėdami matyti oro stebėjimo ir prognozės.

Norėdami pakeisti žemėlapį: spustelėkite ant žalios mygtukų su juodo kryžiaus žemyn,; žalią mygtuką su brūkšneliu, jei norite nutolinti; arba žalių rodyklių gretimoms žemėlapius.


METAR-TAF: